sensor_id;sensor_type;location;lat;lon;timestamp;pressure;altitude;pressure_sealevel;temperature;humidity
54459;BME280;40368;49.350;8.152;2023-10-31T00:00:19;985.4;;;14.66;65.42
54459;BME280;40368;49.350;8.152;2023-10-31T00:01:19;985.5;;;14.67;65.82
54459;BME280;40368;49.350;8.152;2023-10-31T00:02:19;985.5;;;14.69;65.89
54459;BME280;40368;49.350;8.152;2023-10-31T00:03:19;985.5;;;14.7;66.19
54459;BME280;40368;49.350;8.152;2023-10-31T00:04:19;985.5;;;14.67;65.63
54459;BME280;40368;49.350;8.152;2023-10-31T00:05:19;985.6;;;14.66;65.91
54459;BME280;40368;49.350;8.152;2023-10-31T00:06:19;985.6;;;14.67;65.79
54459;BME280;40368;49.350;8.152;2023-10-31T00:07:19;985.5;;;14.7;65.67
54459;BME280;40368;49.350;8.152;2023-10-31T00:08:19;985.6;;;14.7;65.68
54459;BME280;40368;49.350;8.152;2023-10-31T00:09:19;985.6;;;14.71;66.1
54459;BME280;40368;49.350;8.152;2023-10-31T00:10:20;985.4;;;14.69;65.45
54459;BME280;40368;49.350;8.152;2023-10-31T00:11:19;985.6;;;14.7;65.35
54459;BME280;40368;49.350;8.152;2023-10-31T00:12:19;985.6;;;14.69;66.03
54459;BME280;40368;49.350;8.152;2023-10-31T00:13:19;985.5;;;14.68;65.41
54459;BME280;40368;49.350;8.152;2023-10-31T00:14:19;985.6;;;14.67;65.65
54459;BME280;40368;49.350;8.152;2023-10-31T00:15:19;985.5;;;14.64;65.28
54459;BME280;40368;49.350;8.152;2023-10-31T00:16:20;985.8;;;14.65;64.99
54459;BME280;40368;49.350;8.152;2023-10-31T00:17:19;985.7;;;14.63;65.27
54459;BME280;40368;49.350;8.152;2023-10-31T00:18:19;985.7;;;14.6;65.45
54459;BME280;40368;49.350;8.152;2023-10-31T00:19:19;985.7;;;14.61;65.6
54459;BME280;40368;49.350;8.152;2023-10-31T00:20:19;985.7;;;14.59;65.49
54459;BME280;40368;49.350;8.152;2023-10-31T00:21:19;985.9;;;14.59;65.43
54459;BME280;40368;49.350;8.152;2023-10-31T00:22:19;985.8;;;14.58;65.2
54459;BME280;40368;49.350;8.152;2023-10-31T00:23:19;985.8;;;14.59;66.31
54459;BME280;40368;49.350;8.152;2023-10-31T00:24:20;985.7;;;14.56;65.18
54459;BME280;40368;49.350;8.152;2023-10-31T00:25:20;985.8;;;14.56;65.29
54459;BME280;40368;49.350;8.152;2023-10-31T00:26:20;985.8;;;14.52;65.26
54459;BME280;40368;49.350;8.152;2023-10-31T00:27:19;985.8;;;14.51;65.18
54459;BME280;40368;49.350;8.152;2023-10-31T00:28:19;985.8;;;14.5;65.34
54459;BME280;40368;49.350;8.152;2023-10-31T00:29:19;985.8;;;14.51;65.38
54459;BME280;40368;49.350;8.152;2023-10-31T00:30:19;985.6;;;14.55;66.21
54459;BME280;40368;49.350;8.152;2023-10-31T00:31:19;985.6;;;14.61;65.95
54459;BME280;40368;49.350;8.152;2023-10-31T00:32:19;985.6;;;14.63;65.49
54459;BME280;40368;49.350;8.152;2023-10-31T00:33:19;985.7;;;14.65;65.55
54459;BME280;40368;49.350;8.152;2023-10-31T00:34:19;985.7;;;14.64;64.84
54459;BME280;40368;49.350;8.152;2023-10-31T00:35:19;985.7;;;14.63;65.33
54459;BME280;40368;49.350;8.152;2023-10-31T00:36:19;985.7;;;14.64;65.48
54459;BME280;40368;49.350;8.152;2023-10-31T00:37:19;985.7;;;14.69;65.77
54459;BME280;40368;49.350;8.152;2023-10-31T00:38:19;985.7;;;14.72;64.52
54459;BME280;40368;49.350;8.152;2023-10-31T00:39:19;985.8;;;14.73;64.62
54459;BME280;40368;49.350;8.152;2023-10-31T00:40:19;985.7;;;14.7;64.53
54459;BME280;40368;49.350;8.152;2023-10-31T00:41:19;985.8;;;14.66;64.26
54459;BME280;40368;49.350;8.152;2023-10-31T00:42:19;985.8;;;14.62;63.94
54459;BME280;40368;49.350;8.152;2023-10-31T00:43:19;985.8;;;14.63;64.27
54459;BME280;40368;49.350;8.152;2023-10-31T00:44:19;985.8;;;14.65;64.36
54459;BME280;40368;49.350;8.152;2023-10-31T00:45:20;985.8;;;14.66;65.07
54459;BME280;40368;49.350;8.152;2023-10-31T00:46:19;985.9;;;14.69;64.31
54459;BME280;40368;49.350;8.152;2023-10-31T00:47:19;986;;;14.67;64
54459;BME280;40368;49.350;8.152;2023-10-31T00:48:20;986;;;14.64;64.4
54459;BME280;40368;49.350;8.152;2023-10-31T00:49:19;986;;;14.65;64.02
54459;BME280;40368;49.350;8.152;2023-10-31T00:50:19;986;;;14.63;63.95
54459;BME280;40368;49.350;8.152;2023-10-31T00:51:19;985.9;;;14.62;63.95
54459;BME280;40368;49.350;8.152;2023-10-31T00:52:19;986;;;14.58;64.07
54459;BME280;40368;49.350;8.152;2023-10-31T00:53:19;986;;;14.56;64.29
54459;BME280;40368;49.350;8.152;2023-10-31T00:54:19;986;;;14.53;64.01
54459;BME280;40368;49.350;8.152;2023-10-31T00:55:19;986;;;14.51;63.83
54459;BME280;40368;49.350;8.152;2023-10-31T00:56:19;986;;;14.5;64.07
54459;BME280;40368;49.350;8.152;2023-10-31T00:57:19;986;;;14.53;64.54
54459;BME280;40368;49.350;8.152;2023-10-31T00:58:19;986.1;;;14.53;63.94
54459;BME280;40368;49.350;8.152;2023-10-31T00:59:19;986.1;;;14.48;63.77
54459;BME280;40368;49.350;8.152;2023-10-31T01:00:19;986.1;;;14.45;64.39
54459;BME280;40368;49.350;8.152;2023-10-31T01:01:19;986.1;;;14.46;64.15
54459;BME280;40368;49.350;8.152;2023-10-31T01:02:20;986.1;;;14.44;64.46
54459;BME280;40368;49.350;8.152;2023-10-31T01:03:19;986;;;14.42;64.95
54459;BME280;40368;49.350;8.152;2023-10-31T01:04:19;986;;;14.42;64.14
54459;BME280;40368;49.350;8.152;2023-10-31T01:05:19;986.1;;;14.42;64.39
54459;BME280;40368;49.350;8.152;2023-10-31T01:06:19;986;;;14.42;64.63
54459;BME280;40368;49.350;8.152;2023-10-31T01:07:19;986.2;;;14.45;64.9
54459;BME280;40368;49.350;8.152;2023-10-31T01:08:19;986.1;;;14.44;64.7
54459;BME280;40368;49.350;8.152;2023-10-31T01:09:19;986.1;;;14.46;64.39
54459;BME280;40368;49.350;8.152;2023-10-31T01:10:19;986.1;;;14.49;65.1
54459;BME280;40368;49.350;8.152;2023-10-31T01:11:19;986.1;;;14.53;64.5
54459;BME280;40368;49.350;8.152;2023-10-31T01:12:19;986.1;;;14.55;64.37
54459;BME280;40368;49.350;8.152;2023-10-31T01:13:20;986.1;;;14.52;63.53
54459;BME280;40368;49.350;8.152;2023-10-31T01:14:19;986.1;;;14.49;63.77
54459;BME280;40368;49.350;8.152;2023-10-31T01:15:19;986;;;14.47;64.64
54459;BME280;40368;49.350;8.152;2023-10-31T01:16:20;986.1;;;14.49;63.74
54459;BME280;40368;49.350;8.152;2023-10-31T01:17:19;986;;;14.5;64.55
54459;BME280;40368;49.350;8.152;2023-10-31T01:18:19;986.1;;;14.53;64.29
54459;BME280;40368;49.350;8.152;2023-10-31T01:19:19;986.1;;;14.53;63.91
54459;BME280;40368;49.350;8.152;2023-10-31T01:20:19;986.2;;;14.5;63.7
54459;BME280;40368;49.350;8.152;2023-10-31T01:21:18;986.1;;;14.49;64.4
54459;BME280;40368;49.350;8.152;2023-10-31T01:22:19;986.3;;;14.49;64.34
54459;BME280;40368;49.350;8.152;2023-10-31T01:23:19;986.2;;;14.46;63.94
54459;BME280;40368;49.350;8.152;2023-10-31T01:24:19;986.2;;;14.44;64.3
54459;BME280;40368;49.350;8.152;2023-10-31T01:25:19;986.1;;;14.48;64.26
54459;BME280;40368;49.350;8.152;2023-10-31T01:26:19;986.2;;;14.53;63.94
54459;BME280;40368;49.350;8.152;2023-10-31T01:27:19;986.3;;;14.53;64.11
54459;BME280;40368;49.350;8.152;2023-10-31T01:28:19;986.3;;;14.52;63.88
54459;BME280;40368;49.350;8.152;2023-10-31T01:29:19;986.3;;;14.5;63.88
54459;BME280;40368;49.350;8.152;2023-10-31T01:30:19;986.3;;;14.48;64.32
54459;BME280;40368;49.350;8.152;2023-10-31T01:31:19;986.4;;;14.47;64.27
54459;BME280;40368;49.350;8.152;2023-10-31T01:32:19;986.4;;;14.44;65.07
54459;BME280;40368;49.350;8.152;2023-10-31T01:33:19;986.4;;;14.46;64.6
54459;BME280;40368;49.350;8.152;2023-10-31T01:34:19;986.4;;;14.46;65.01
54459;BME280;40368;49.350;8.152;2023-10-31T01:35:19;986.4;;;14.41;65.07
54459;BME280;40368;49.350;8.152;2023-10-31T01:36:19;986.4;;;14.43;65.58
54459;BME280;40368;49.350;8.152;2023-10-31T01:37:19;986.5;;;14.44;65.14
54459;BME280;40368;49.350;8.152;2023-10-31T01:38:20;986.5;;;14.44;65.21
54459;BME280;40368;49.350;8.152;2023-10-31T01:39:19;986.5;;;14.46;65.46
54459;BME280;40368;49.350;8.152;2023-10-31T01:40:19;986.4;;;14.48;65.13
54459;BME280;40368;49.350;8.152;2023-10-31T01:41:19;986.4;;;14.52;65.53
54459;BME280;40368;49.350;8.152;2023-10-31T01:42:19;986.4;;;14.56;65.58
54459;BME280;40368;49.350;8.152;2023-10-31T01:43:35;986.5;;;14.59;65.15
54459;BME280;40368;49.350;8.152;2023-10-31T01:44:19;986.4;;;14.62;65.86
54459;BME280;40368;49.350;8.152;2023-10-31T01:45:19;986.3;;;14.68;65.42
54459;BME280;40368;49.350;8.152;2023-10-31T01:46:19;986.3;;;14.73;65.43
54459;BME280;40368;49.350;8.152;2023-10-31T01:47:19;986.4;;;14.78;65.24
54459;BME280;40368;49.350;8.152;2023-10-31T01:48:19;986.4;;;14.8;64.95
54459;BME280;40368;49.350;8.152;2023-10-31T01:49:19;986.3;;;14.82;64.87
54459;BME280;40368;49.350;8.152;2023-10-31T01:50:19;986.3;;;14.84;64.58
54459;BME280;40368;49.350;8.152;2023-10-31T01:51:19;986.4;;;14.77;64.3
54459;BME280;40368;49.350;8.152;2023-10-31T01:52:19;986.3;;;14.75;64.87
54459;BME280;40368;49.350;8.152;2023-10-31T01:53:19;986.4;;;14.68;64.16
54459;BME280;40368;49.350;8.152;2023-10-31T01:54:19;986.4;;;14.63;65.02
54459;BME280;40368;49.350;8.152;2023-10-31T01:55:19;986.4;;;14.61;64.56
54459;BME280;40368;49.350;8.152;2023-10-31T01:56:19;986.4;;;14.58;63.88
54459;BME280;40368;49.350;8.152;2023-10-31T01:57:19;986.4;;;14.53;64.17
54459;BME280;40368;49.350;8.152;2023-10-31T01:58:19;986.5;;;14.5;64.66
54459;BME280;40368;49.350;8.152;2023-10-31T01:59:19;986.5;;;14.49;64.77
54459;BME280;40368;49.350;8.152;2023-10-31T02:00:19;986.4;;;14.5;64.57
54459;BME280;40368;49.350;8.152;2023-10-31T02:01:19;986.4;;;14.49;64.62
54459;BME280;40368;49.350;8.152;2023-10-31T02:02:20;986.4;;;14.52;65.19
54459;BME280;40368;49.350;8.152;2023-10-31T02:03:19;986.4;;;14.56;65.15
54459;BME280;40368;49.350;8.152;2023-10-31T02:04:19;986.4;;;14.56;64.22
54459;BME280;40368;49.350;8.152;2023-10-31T02:05:19;986.4;;;14.58;64.7
54459;BME280;40368;49.350;8.152;2023-10-31T02:06:19;986.4;;;14.53;63.92
54459;BME280;40368;49.350;8.152;2023-10-31T02:07:19;986.4;;;14.51;64.14
54459;BME280;40368;49.350;8.152;2023-10-31T02:08:19;986.4;;;14.54;64.81
54459;BME280;40368;49.350;8.152;2023-10-31T02:09:19;986.4;;;14.57;64.33
54459;BME280;40368;49.350;8.152;2023-10-31T02:10:20;986.4;;;14.58;64.63
54459;BME280;40368;49.350;8.152;2023-10-31T02:11:19;986.4;;;14.62;64.45
54459;BME280;40368;49.350;8.152;2023-10-31T02:12:35;986.4;;;14.6;63.57
54459;BME280;40368;49.350;8.152;2023-10-31T02:13:19;986.4;;;14.6;64.72
54459;BME280;40368;49.350;8.152;2023-10-31T02:14:19;986.4;;;14.61;64.48
54459;BME280;40368;49.350;8.152;2023-10-31T02:15:19;986.4;;;14.64;63.83
54459;BME280;40368;49.350;8.152;2023-10-31T02:16:19;986.4;;;14.61;64.09
54459;BME280;40368;49.350;8.152;2023-10-31T02:17:19;986.6;;;14.58;63.52
54459;BME280;40368;49.350;8.152;2023-10-31T02:18:19;986.5;;;14.53;63.57
54459;BME280;40368;49.350;8.152;2023-10-31T02:19:19;986.6;;;14.46;63.55
54459;BME280;40368;49.350;8.152;2023-10-31T02:20:19;986.5;;;14.44;63.92
54459;BME280;40368;49.350;8.152;2023-10-31T02:21:20;986.5;;;14.46;63.99
54459;BME280;40368;49.350;8.152;2023-10-31T02:22:19;986.6;;;14.45;64.12
54459;BME280;40368;49.350;8.152;2023-10-31T02:23:19;986.5;;;14.46;64.05
54459;BME280;40368;49.350;8.152;2023-10-31T02:24:19;986.6;;;14.47;64.17
54459;BME280;40368;49.350;8.152;2023-10-31T02:25:19;986.6;;;14.47;64.26
54459;BME280;40368;49.350;8.152;2023-10-31T02:26:19;986.8;;;14.45;63.89
54459;BME280;40368;49.350;8.152;2023-10-31T02:27:19;986.7;;;14.42;63.74
54459;BME280;40368;49.350;8.152;2023-10-31T02:28:20;986.6;;;14.39;64.43
54459;BME280;40368;49.350;8.152;2023-10-31T02:29:19;986.7;;;14.42;63.91
54459;BME280;40368;49.350;8.152;2023-10-31T02:30:19;986.7;;;14.39;64.19
54459;BME280;40368;49.350;8.152;2023-10-31T02:31:19;986.7;;;14.38;64.29
54459;BME280;40368;49.350;8.152;2023-10-31T02:32:19;986.8;;;14.37;63.94
54459;BME280;40368;49.350;8.152;2023-10-31T02:33:19;986.8;;;14.38;64.22
54459;BME280;40368;49.350;8.152;2023-10-31T02:34:19;986.7;;;14.39;64.45
54459;BME280;40368;49.350;8.152;2023-10-31T02:35:19;986.7;;;14.43;64.39
54459;BME280;40368;49.350;8.152;2023-10-31T02:36:19;986.7;;;14.47;64.27
54459;BME280;40368;49.350;8.152;2023-10-31T02:37:19;986.8;;;14.45;63.55
54459;BME280;40368;49.350;8.152;2023-10-31T02:38:19;986.7;;;14.44;64.38
54459;BME280;40368;49.350;8.152;2023-10-31T02:39:19;986.8;;;14.49;64.41
54459;BME280;40368;49.350;8.152;2023-10-31T02:40:19;986.8;;;14.51;64.23
54459;BME280;40368;49.350;8.152;2023-10-31T02:41:19;986.7;;;14.46;63.52
54459;BME280;40368;49.350;8.152;2023-10-31T02:42:19;986.8;;;14.46;64.12
54459;BME280;40368;49.350;8.152;2023-10-31T02:43:19;986.8;;;14.5;64.57
54459;BME280;40368;49.350;8.152;2023-10-31T02:44:19;986.7;;;14.55;63.66
54459;BME280;40368;49.350;8.152;2023-10-31T02:45:20;986.8;;;14.54;63.92
54459;BME280;40368;49.350;8.152;2023-10-31T02:46:19;986.9;;;14.53;64.08
54459;BME280;40368;49.350;8.152;2023-10-31T02:47:19;986.9;;;14.52;64
54459;BME280;40368;49.350;8.152;2023-10-31T02:48:19;986.9;;;14.54;64.35
54459;BME280;40368;49.350;8.152;2023-10-31T02:49:19;986.8;;;14.58;63.7
54459;BME280;40368;49.350;8.152;2023-10-31T02:50:19;986.8;;;14.6;63.99
54459;BME280;40368;49.350;8.152;2023-10-31T02:51:19;986.8;;;14.59;63.23
54459;BME280;40368;49.350;8.152;2023-10-31T02:52:19;986.9;;;14.54;63.49
54459;BME280;40368;49.350;8.152;2023-10-31T02:53:19;986.8;;;14.5;63.41
54459;BME280;40368;49.350;8.152;2023-10-31T02:54:19;986.9;;;14.49;63.32
54459;BME280;40368;49.350;8.152;2023-10-31T02:55:19;986.9;;;14.5;63.74
54459;BME280;40368;49.350;8.152;2023-10-31T02:56:19;986.8;;;14.54;64.06
54459;BME280;40368;49.350;8.152;2023-10-31T02:57:19;986.8;;;14.61;64.14
54459;BME280;40368;49.350;8.152;2023-10-31T02:58:19;986.9;;;14.62;63.95
54459;BME280;40368;49.350;8.152;2023-10-31T02:59:19;986.8;;;14.65;63.94
54459;BME280;40368;49.350;8.152;2023-10-31T03:00:19;986.8;;;14.67;63.91
54459;BME280;40368;49.350;8.152;2023-10-31T03:01:19;986.9;;;14.71;63.96
54459;BME280;40368;49.350;8.152;2023-10-31T03:02:19;986.9;;;14.71;62.97
54459;BME280;40368;49.350;8.152;2023-10-31T03:03:19;987;;;14.67;62.48
54459;BME280;40368;49.350;8.152;2023-10-31T03:04:19;986.9;;;14.62;62.68
54459;BME280;40368;49.350;8.152;2023-10-31T03:05:19;987;;;14.64;63.73
54459;BME280;40368;49.350;8.152;2023-10-31T03:06:19;987;;;14.67;63.75
54459;BME280;40368;49.350;8.152;2023-10-31T03:07:19;987;;;14.68;63.24
54459;BME280;40368;49.350;8.152;2023-10-31T03:08:20;987.1;;;14.68;63.27
54459;BME280;40368;49.350;8.152;2023-10-31T03:09:19;987.1;;;14.66;63.31
54459;BME280;40368;49.350;8.152;2023-10-31T03:10:19;987.2;;;14.67;63.2
54459;BME280;40368;49.350;8.152;2023-10-31T03:11:20;987.2;;;14.61;63.07
54459;BME280;40368;49.350;8.152;2023-10-31T03:12:19;987.1;;;14.58;63.09
54459;BME280;40368;49.350;8.152;2023-10-31T03:13:19;987.2;;;14.56;63.22
54459;BME280;40368;49.350;8.152;2023-10-31T03:14:19;987.2;;;14.58;63.03
54459;BME280;40368;49.350;8.152;2023-10-31T03:15:19;987.3;;;14.6;62.86
54459;BME280;40368;49.350;8.152;2023-10-31T03:16:19;987.3;;;14.62;63.16
54459;BME280;40368;49.350;8.152;2023-10-31T03:17:19;987.3;;;14.62;63.06
54459;BME280;40368;49.350;8.152;2023-10-31T03:18:19;987.3;;;14.63;63.1
54459;BME280;40368;49.350;8.152;2023-10-31T03:19:19;987.3;;;14.6;62.72
54459;BME280;40368;49.350;8.152;2023-10-31T03:20:19;987.4;;;14.55;62.87
54459;BME280;40368;49.350;8.152;2023-10-31T03:21:19;987.4;;;14.55;62.97
54459;BME280;40368;49.350;8.152;2023-10-31T03:22:19;987.4;;;14.56;63.46
54459;BME280;40368;49.350;8.152;2023-10-31T03:23:19;987.4;;;14.57;62.79
54459;BME280;40368;49.350;8.152;2023-10-31T03:24:19;987.5;;;14.57;63.53
54459;BME280;40368;49.350;8.152;2023-10-31T03:25:19;987.5;;;14.56;63.1
54459;BME280;40368;49.350;8.152;2023-10-31T03:26:20;987.5;;;14.56;63.11
54459;BME280;40368;49.350;8.152;2023-10-31T03:27:19;987.6;;;14.58;62.46
54459;BME280;40368;49.350;8.152;2023-10-31T03:28:19;987.6;;;14.55;62.52
54459;BME280;40368;49.350;8.152;2023-10-31T03:29:19;987.6;;;14.53;62.17
54459;BME280;40368;49.350;8.152;2023-10-31T03:30:19;987.6;;;14.51;62.14
54459;BME280;40368;49.350;8.152;2023-10-31T03:31:20;987.6;;;14.5;62.42
54459;BME280;40368;49.350;8.152;2023-10-31T03:32:19;987.6;;;14.53;62.92
54459;BME280;40368;49.350;8.152;2023-10-31T03:33:19;987.6;;;14.57;63.27
54459;BME280;40368;49.350;8.152;2023-10-31T03:34:19;987.7;;;14.55;62.9
54459;BME280;40368;49.350;8.152;2023-10-31T03:35:19;987.7;;;14.53;62.39
54459;BME280;40368;49.350;8.152;2023-10-31T03:36:19;987.7;;;14.53;62.83
54459;BME280;40368;49.350;8.152;2023-10-31T03:37:20;987.6;;;14.54;62.87
54459;BME280;40368;49.350;8.152;2023-10-31T03:38:19;987.7;;;14.57;63.04
54459;BME280;40368;49.350;8.152;2023-10-31T03:39:19;987.7;;;14.58;63.15
54459;BME280;40368;49.350;8.152;2023-10-31T03:40:19;987.8;;;14.6;63.04
54459;BME280;40368;49.350;8.152;2023-10-31T03:41:19;987.8;;;14.61;63.01
54459;BME280;40368;49.350;8.152;2023-10-31T03:42:19;987.7;;;14.59;62.41
54459;BME280;40368;49.350;8.152;2023-10-31T03:43:19;987.8;;;14.57;63.39
54459;BME280;40368;49.350;8.152;2023-10-31T03:44:19;987.8;;;14.6;63.21
54459;BME280;40368;49.350;8.152;2023-10-31T03:45:19;987.7;;;14.62;63.15
54459;BME280;40368;49.350;8.152;2023-10-31T03:46:19;987.8;;;14.67;62.77
54459;BME280;40368;49.350;8.152;2023-10-31T03:47:19;987.8;;;14.63;62.73
54459;BME280;40368;49.350;8.152;2023-10-31T03:48:20;987.8;;;14.6;62.87
54459;BME280;40368;49.350;8.152;2023-10-31T03:49:19;987.8;;;14.54;62.82
54459;BME280;40368;49.350;8.152;2023-10-31T03:50:19;987.7;;;14.5;62.61
54459;BME280;40368;49.350;8.152;2023-10-31T03:51:19;987.8;;;14.51;63.33
54459;BME280;40368;49.350;8.152;2023-10-31T03:52:19;987.7;;;14.53;62.99
54459;BME280;40368;49.350;8.152;2023-10-31T03:53:19;987.8;;;14.57;63.52
54459;BME280;40368;49.350;8.152;2023-10-31T03:54:19;987.8;;;14.61;63.38
54459;BME280;40368;49.350;8.152;2023-10-31T03:55:19;987.8;;;14.62;62.17
54459;BME280;40368;49.350;8.152;2023-10-31T03:56:19;987.8;;;14.6;62.02
54459;BME280;40368;49.350;8.152;2023-10-31T03:57:19;987.8;;;14.6;62.39
54459;BME280;40368;49.350;8.152;2023-10-31T03:58:20;987.7;;;14.59;61.87
54459;BME280;40368;49.350;8.152;2023-10-31T03:59:20;987.8;;;14.59;62.47
54459;BME280;40368;49.350;8.152;2023-10-31T04:00:19;987.8;;;14.58;62.14
54459;BME280;40368;49.350;8.152;2023-10-31T04:01:19;987.8;;;14.59;62.64
54459;BME280;40368;49.350;8.152;2023-10-31T04:02:19;987.8;;;14.6;62.25
54459;BME280;40368;49.350;8.152;2023-10-31T04:03:19;987.8;;;14.59;62.85
54459;BME280;40368;49.350;8.152;2023-10-31T04:04:19;987.9;;;14.6;63.11
54459;BME280;40368;49.350;8.152;2023-10-31T04:05:19;987.8;;;14.6;63.02
54459;BME280;40368;49.350;8.152;2023-10-31T04:06:19;987.8;;;14.62;62.86
54459;BME280;40368;49.350;8.152;2023-10-31T04:07:19;987.8;;;14.64;62.55
54459;BME280;40368;49.350;8.152;2023-10-31T04:08:19;987.8;;;14.65;63.06
54459;BME280;40368;49.350;8.152;2023-10-31T04:09:19;987.8;;;14.66;62.13
54459;BME280;40368;49.350;8.152;2023-10-31T04:10:19;987.8;;;14.64;62.03
54459;BME280;40368;49.350;8.152;2023-10-31T04:11:20;987.8;;;14.56;61.75
54459;BME280;40368;49.350;8.152;2023-10-31T04:12:19;987.8;;;14.53;61.88
54459;BME280;40368;49.350;8.152;2023-10-31T04:13:19;987.8;;;14.52;62.12
54459;BME280;40368;49.350;8.152;2023-10-31T04:14:19;987.8;;;14.52;62.01
54459;BME280;40368;49.350;8.152;2023-10-31T04:15:19;987.8;;;14.49;61.85
54459;BME280;40368;49.350;8.152;2023-10-31T04:16:19;987.8;;;14.46;62.68
54459;BME280;40368;49.350;8.152;2023-10-31T04:17:19;987.8;;;14.43;61.65
54459;BME280;40368;49.350;8.152;2023-10-31T04:18:20;987.8;;;14.39;61.91
54459;BME280;40368;49.350;8.152;2023-10-31T04:19:19;987.8;;;14.37;61.92
54459;BME280;40368;49.350;8.152;2023-10-31T04:20:20;987.8;;;14.35;62.36
54459;BME280;40368;49.350;8.152;2023-10-31T04:21:19;987.8;;;14.37;62.22
54459;BME280;40368;49.350;8.152;2023-10-31T04:22:19;987.8;;;14.4;62.7
54459;BME280;40368;49.350;8.152;2023-10-31T04:23:19;987.8;;;14.41;62.52
54459;BME280;40368;49.350;8.152;2023-10-31T04:24:19;987.9;;;14.41;62.58
54459;BME280;40368;49.350;8.152;2023-10-31T04:25:20;987.9;;;14.4;62.12
54459;BME280;40368;49.350;8.152;2023-10-31T04:26:19;987.8;;;14.36;62.03
54459;BME280;40368;49.350;8.152;2023-10-31T04:27:19;987.9;;;14.34;62.16
54459;BME280;40368;49.350;8.152;2023-10-31T04:28:19;987.8;;;14.32;61.8
54459;BME280;40368;49.350;8.152;2023-10-31T04:29:19;987.9;;;14.32;62.61
54459;BME280;40368;49.350;8.152;2023-10-31T04:30:19;987.8;;;14.34;62.58
54459;BME280;40368;49.350;8.152;2023-10-31T04:31:19;987.8;;;14.34;62.19
54459;BME280;40368;49.350;8.152;2023-10-31T04:32:19;987.8;;;14.36;62.51
54459;BME280;40368;49.350;8.152;2023-10-31T04:33:19;987.9;;;14.37;62.65
54459;BME280;40368;49.350;8.152;2023-10-31T04:34:19;987.8;;;14.42;62.38
54459;BME280;40368;49.350;8.152;2023-10-31T04:35:20;987.9;;;14.46;62.77
54459;BME280;40368;49.350;8.152;2023-10-31T04:36:19;987.9;;;14.42;62.31
54459;BME280;40368;49.350;8.152;2023-10-31T04:37:19;987.9;;;14.42;62.21
54459;BME280;40368;49.350;8.152;2023-10-31T04:38:19;987.9;;;14.37;61.54
54459;BME280;40368;49.350;8.152;2023-10-31T04:39:19;987.9;;;14.34;62.22
54459;BME280;40368;49.350;8.152;2023-10-31T04:40:19;987.9;;;14.37;61.75
54459;BME280;40368;49.350;8.152;2023-10-31T04:41:19;987.9;;;14.36;61.94
54459;BME280;40368;49.350;8.152;2023-10-31T04:42:19;987.9;;;14.36;62.04
54459;BME280;40368;49.350;8.152;2023-10-31T04:43:19;987.9;;;14.38;61.95
54459;BME280;40368;49.350;8.152;2023-10-31T04:44:19;987.9;;;14.4;62.08
54459;BME280;40368;49.350;8.152;2023-10-31T04:45:19;987.9;;;14.44;62.5
54459;BME280;40368;49.350;8.152;2023-10-31T04:46:19;987.9;;;14.45;61.43
54459;BME280;40368;49.350;8.152;2023-10-31T04:47:19;987.9;;;14.45;61.42
54459;BME280;40368;49.350;8.152;2023-10-31T04:48:19;988;;;14.46;61.61
54459;BME280;40368;49.350;8.152;2023-10-31T04:49:19;988;;;14.49;61.85
54459;BME280;40368;49.350;8.152;2023-10-31T04:50:19;987.9;;;14.48;61.34
54459;BME280;40368;49.350;8.152;2023-10-31T04:51:19;987.9;;;14.45;61.58
54459;BME280;40368;49.350;8.152;2023-10-31T04:52:19;987.9;;;14.47;62.09
54459;BME280;40368;49.350;8.152;2023-10-31T04:53:19;987.9;;;14.48;61.79
54459;BME280;40368;49.350;8.152;2023-10-31T04:54:19;988;;;14.45;61.53
54459;BME280;40368;49.350;8.152;2023-10-31T04:55:19;988;;;14.38;61.49
54459;BME280;40368;49.350;8.152;2023-10-31T04:56:20;988;;;14.38;62.51
54459;BME280;40368;49.350;8.152;2023-10-31T04:57:19;987.9;;;14.37;61.71
54459;BME280;40368;49.350;8.152;2023-10-31T04:58:20;987.9;;;14.35;61.76
54459;BME280;40368;49.350;8.152;2023-10-31T04:59:19;988;;;14.34;62.06
54459;BME280;40368;49.350;8.152;2023-10-31T05:00:19;988;;;14.36;61.77
54459;BME280;40368;49.350;8.152;2023-10-31T05:01:19;988.1;;;14.38;62.09
54459;BME280;40368;49.350;8.152;2023-10-31T05:02:20;988.1;;;14.41;62.65
54459;BME280;40368;49.350;8.152;2023-10-31T05:03:19;988;;;14.41;61.96
54459;BME280;40368;49.350;8.152;2023-10-31T05:04:19;988;;;14.42;61.86
54459;BME280;40368;49.350;8.152;2023-10-31T05:05:19;988.1;;;14.4;62.09
54459;BME280;40368;49.350;8.152;2023-10-31T05:06:19;988.1;;;14.38;61.93
54459;BME280;40368;49.350;8.152;2023-10-31T05:07:19;988;;;14.41;62.45
54459;BME280;40368;49.350;8.152;2023-10-31T05:08:19;988;;;14.4;61.91
54459;BME280;40368;49.350;8.152;2023-10-31T05:09:20;988;;;14.42;62.18
54459;BME280;40368;49.350;8.152;2023-10-31T05:10:20;988;;;14.36;61.66
54459;BME280;40368;49.350;8.152;2023-10-31T05:11:19;988;;;14.33;62.28
54459;BME280;40368;49.350;8.152;2023-10-31T05:12:20;988.1;;;14.35;62.33
54459;BME280;40368;49.350;8.152;2023-10-31T05:13:20;988;;;14.34;62.77
54459;BME280;40368;49.350;8.152;2023-10-31T05:14:19;988;;;14.35;62.58
54459;BME280;40368;49.350;8.152;2023-10-31T05:15:20;988.1;;;14.38;62.64
54459;BME280;40368;49.350;8.152;2023-10-31T05:16:19;988.1;;;14.41;62.69
54459;BME280;40368;49.350;8.152;2023-10-31T05:17:20;988.1;;;14.4;62.45
54459;BME280;40368;49.350;8.152;2023-10-31T05:18:19;988;;;14.37;61.94
54459;BME280;40368;49.350;8.152;2023-10-31T05:19:19;988;;;14.35;62.18
54459;BME280;40368;49.350;8.152;2023-10-31T05:20:19;988.1;;;14.37;62.02
54459;BME280;40368;49.350;8.152;2023-10-31T05:21:19;988.1;;;14.35;62.41
54459;BME280;40368;49.350;8.152;2023-10-31T05:22:19;988.1;;;14.39;62.55
54459;BME280;40368;49.350;8.152;2023-10-31T05:23:19;988.1;;;14.4;62.13
54459;BME280;40368;49.350;8.152;2023-10-31T05:24:19;988.1;;;14.4;62.35
54459;BME280;40368;49.350;8.152;2023-10-31T05:25:19;988.2;;;14.39;62.64
54459;BME280;40368;49.350;8.152;2023-10-31T05:26:19;988.2;;;14.33;62.93
54459;BME280;40368;49.350;8.152;2023-10-31T05:27:24;988.1;;;14.35;63.39
54459;BME280;40368;49.350;8.152;2023-10-31T05:28:19;988.2;;;14.39;63.37
54459;BME280;40368;49.350;8.152;2023-10-31T05:29:20;988.1;;;14.42;63.2
54459;BME280;40368;49.350;8.152;2023-10-31T05:30:19;988.2;;;14.42;63.65
54459;BME280;40368;49.350;8.152;2023-10-31T05:31:19;988.2;;;14.43;63.15
54459;BME280;40368;49.350;8.152;2023-10-31T05:32:19;988.2;;;14.45;63.28